Time;durP1;ratioP1;P1;durP2;ratioP2;P2;SDS_P1;SDS_P2;PMS_P1;PMS_P2;Temp;Humidity;BMP_temperature;BMP_pressure;BME280_temperature;BME280_humidity;BME280_pressure;Samples;Min_cycle;Max_cycle;Signal;HPM_P1;HPM_P2
2023/09/10 00:01:56;;;;;;;6.65;6.05;;;22.70;99.90;;;;;;5084063;28;20372;-46
2023/09/10 00:04:21;;;;;;;6.20;5.70;;;22.70;99.90;;;;;;5084278;28;20105;-41
2023/09/10 00:06:47;;;;;;;6.20;5.70;;;22.70;99.90;;;;;;5088977;28;20028;-41
2023/09/10 00:09:12;;;;;;;6.45;5.93;;;22.70;99.90;;;;;;5088328;28;20031;-41
2023/09/10 00:11:38;;;;;;;5.85;5.35;;;22.70;99.90;;;;;;5088923;28;20047;-41
2023/09/10 00:14:03;;;;;;;6.18;5.68;;;22.70;99.90;;;;;;5088446;28;20520;-42
2023/09/10 00:16:29;;;;;;;5.95;5.40;;;22.70;99.90;;;;;;5082241;28;20115;-41
2023/09/10 00:18:57;;;;;;;6.40;5.90;;;22.70;99.90;;;;;;5083734;28;20038;-41
2023/09/10 00:21:23;;;;;;;7.18;6.53;;;22.60;99.90;;;;;;5083416;28;20038;-41
2023/09/10 00:23:48;;;;;;;7.18;6.57;;;22.60;99.90;;;;;;5080235;28;20028;-42
2023/09/10 00:26:14;;;;;;;6.88;6.28;;;22.60;99.90;;;;;;5083012;28;20106;-42
2023/09/10 00:28:39;;;;;;;7.13;6.53;;;22.60;99.90;;;;;;5083882;28;20028;-41
2023/09/10 00:31:05;;;;;;;7.82;6.32;;;22.60;99.90;;;;;;5083289;28;20028;-41
2023/09/10 00:33:31;;;;;;;5.82;5.32;;;22.60;99.90;;;;;;5083581;28;20019;-42
2023/09/10 00:35:56;;;;;;;6.78;6.20;;;22.50;99.90;;;;;;5081777;28;20032;-42
2023/09/10 00:38:22;;;;;;;6.80;6.20;;;22.50;99.90;;;;;;5081881;28;20020;-42
2023/09/10 00:40:47;;;;;;;6.40;5.90;;;22.50;99.90;;;;;;5085365;28;20032;-42
2023/09/10 00:43:13;;;;;;;7.00;6.05;;;22.50;99.90;;;;;;5080230;28;20028;-42
2023/09/10 00:45:39;;;;;;;6.55;5.95;;;22.50;99.90;;;;;;5083434;28;20031;-43
2023/09/10 00:48:05;;;;;;;7.22;6.63;;;22.50;99.90;;;;;;5082577;28;20464;-42
2023/09/10 00:50:34;;;;;;;6.63;5.93;;;22.50;99.90;;;;;;5083251;28;20033;-42
2023/09/10 00:52:59;;;;;;;6.82;6.22;;;22.50;99.90;;;;;;5082265;28;20024;-42
2023/09/10 00:55:29;;;;;;;6.20;5.70;;;22.40;99.90;;;;;;5081729;28;20031;-42
2023/09/10 00:57:57;;;;;;;6.75;6.15;;;22.40;99.90;;;;;;5086737;28;20047;-42
2023/09/10 01:00:24;;;;;;;7.05;6.35;;;22.40;99.90;;;;;;5087670;28;20056;-42
2023/09/10 01:02:50;;;;;;;6.90;6.20;;;22.40;99.90;;;;;;5087368;28;20040;-42
2023/09/10 01:05:18;;;;;;;6.93;6.32;;;22.40;99.90;;;;;;5086918;28;20031;-42
2023/09/10 01:07:45;;;;;;;6.30;5.70;;;22.40;99.90;;;;;;5087691;28;20013;-42
2023/09/10 01:10:11;;;;;;;6.43;5.82;;;22.40;99.90;;;;;;5087664;28;20032;-41
2023/09/10 01:12:54;;;;;;;6.82;6.22;;;22.30;99.90;;;;;;5087018;28;20077;-43
2023/09/10 01:15:34;;;;;;;6.88;6.22;;;22.30;99.90;;;;;;5086775;28;20048;-42
2023/09/10 01:18:15;;;;;;;6.50;5.97;;;22.30;99.90;;;;;;5086388;28;20427;-42
2023/09/10 01:21:05;;;;;;;6.82;6.25;;;22.30;99.90;;;;;;5076971;28;20078;-42
2023/09/10 01:23:36;;;;;;;7.10;6.50;;;22.30;99.90;;;;;;5088061;28;20074;-43
2023/09/10 01:26:02;;;;;;;8.02;7.28;;;22.30;99.90;;;;;;5086678;28;20028;-42
2023/09/10 01:28:27;;;;;;;10.20;7.50;;;22.20;99.90;;;;;;5086681;28;20814;-42
2023/09/10 01:30:53;;;;;;;7.45;6.82;;;22.20;99.90;;;;;;5087349;28;20028;-42
2023/09/10 01:33:24;;;;;;;7.70;7.10;;;22.20;99.90;;;;;;5086133;28;20086;-42
2023/09/10 01:36:02;;;;;;;8.25;7.55;;;22.30;99.90;;;;;;5087564;28;20779;-43
2023/09/10 01:39:01;;;;;;;8.10;6.75;;;22.20;99.90;;;;;;5083262;28;20040;-43
2023/09/10 01:41:29;;;;;;;7.82;7.13;;;22.30;99.90;;;;;;5080589;28;20047;-44
2023/09/10 01:43:58;;;;;;;8.25;7.45;;;22.30;99.90;;;;;;5082371;28;20028;-43
2023/09/10 01:46:26;;;;;;;8.50;7.63;;;22.30;99.90;;;;;;5081508;28;20031;-43
2023/09/10 01:48:52;;;;;;;8.35;7.20;;;22.30;99.90;;;;;;5081547;28;20438;-41
2023/09/10 01:51:17;;;;;;;7.85;7.15;;;22.30;99.90;;;;;;5081006;28;20028;-44
2023/09/10 01:53:43;;;;;;;9.13;7.80;;;22.30;99.90;;;;;;5082053;28;20035;-43
2023/09/10 01:56:08;;;;;;;7.80;7.20;;;22.30;99.90;;;;;;5079855;28;20156;-41
2023/09/10 01:58:34;;;;;;;8.32;7.50;;;22.30;99.90;;;;;;5082542;28;20529;-42
2023/09/10 02:00:59;;;;;;;8.35;7.63;;;22.30;99.90;;;;;;5079880;28;20109;-42
2023/09/10 02:03:25;;;;;;;8.30;7.50;;;22.30;99.90;;;;;;5081611;28;20115;-42
2023/09/10 02:05:53;;;;;;;8.00;7.30;;;22.30;99.90;;;;;;5083403;28;20740;-42
2023/09/10 02:08:19;;;;;;;8.35;7.60;;;22.30;99.90;;;;;;5080957;28;20686;-42
2023/09/10 02:10:50;;;;;;;8.10;7.50;;;22.30;99.90;;;;;;5083865;28;20503;-42
2023/09/10 02:13:18;;;;;;;8.57;7.78;;;22.30;99.90;;;;;;5081168;28;20028;-42
2023/09/10 02:15:44;;;;;;;7.97;7.28;;;22.30;99.90;;;;;;5081411;28;20032;-42
2023/09/10 02:18:09;;;;;;;9.13;7.28;;;22.30;99.90;;;;;;5081225;28;20028;-42
2023/09/10 02:20:39;;;;;;;8.07;7.28;;;22.30;99.90;;;;;;5081282;28;20020;-42
2023/09/10 02:23:04;;;;;;;7.68;7.07;;;22.30;99.90;;;;;;5081564;28;20763;-42
2023/09/10 02:25:32;;;;;;;7.45;6.85;;;22.30;99.90;;;;;;5083526;28;20057;-41
2023/09/10 02:28:00;;;;;;;7.47;6.88;;;22.30;99.90;;;;;;5081457;28;20028;-42
2023/09/10 02:30:25;;;;;;;7.68;6.93;;;22.30;99.90;;;;;;5080896;28;20020;-42
2023/09/10 02:32:51;;;;;;;7.57;6.65;;;22.30;99.90;;;;;;5081367;28;20480;-42
2023/09/10 02:35:16;;;;;;;7.32;6.68;;;22.30;99.90;;;;;;5081328;28;20027;-42
2023/09/10 02:37:42;;;;;;;7.25;6.60;;;22.30;99.90;;;;;;5079381;28;20035;-42
2023/09/10 02:40:11;;;;;;;6.95;6.25;;;22.30;99.90;;;;;;5081355;28;20032;-41
2023/09/10 02:42:37;;;;;;;7.63;6.93;;;22.20;99.90;;;;;;5080235;28;20036;-42
2023/09/10 02:45:03;;;;;;;7.20;6.60;;;22.30;99.90;;;;;;5081034;28;20039;-42
2023/09/10 02:47:29;;;;;;;7.28;6.60;;;22.20;99.90;;;;;;5079725;28;20107;-42
2023/09/10 02:49:55;;;;;;;7.50;6.80;;;22.20;99.90;;;;;;5080604;28;20042;-42
2023/09/10 02:52:30;;;;;;;7.95;7.20;;;22.20;99.90;;;;;;5079468;28;20024;-42
2023/09/10 02:54:59;;;;;;;7.95;7.25;;;22.10;99.90;;;;;;5077608;28;20028;-42
2023/09/10 02:57:24;;;;;;;7.95;7.25;;;22.20;99.90;;;;;;5078357;28;20036;-43
2023/09/10 02:59:50;;;;;;;8.60;7.80;;;22.10;99.90;;;;;;5080546;28;20084;-41
2023/09/10 03:02:16;;;;;;;8.77;7.97;;;22.10;99.90;;;;;;5079392;28;20036;-42
2023/09/10 03:04:42;;;;;;;8.38;7.57;;;22.10;99.90;;;;;;5078783;28;20067;-42
2023/09/10 03:07:07;;;;;;;9.05;8.18;;;22.10;99.90;;;;;;5082115;28;20051;-42
2023/09/10 03:09:33;;;;;;;8.55;7.80;;;22.10;99.90;;;;;;5091457;28;20061;-41
2023/09/10 03:12:28;;;;;;;8.95;8.05;;;22.10;99.90;;;;;;5084682;28;20028;-43
2023/09/10 03:14:56;;;;;;;9.45;8.55;;;22.10;99.90;;;;;;5079156;28;20853;-42
2023/09/10 03:17:22;;;;;;;9.32;8.23;;;22.10;99.90;;;;;;5084824;28;20008;-43
2023/09/10 03:19:51;;;;;;;9.77;8.80;;;22.10;99.90;;;;;;5084793;28;20058;-42
2023/09/10 03:22:16;;;;;;;9.93;8.55;;;22.00;99.90;;;;;;5082324;28;20020;-42
2023/09/10 03:24:42;;;;;;;10.25;9.30;;;22.00;99.90;;;;;;5087670;28;20039;-42
2023/09/10 03:27:07;;;;;;;9.63;8.82;;;22.00;99.90;;;;;;5083550;28;20028;-43
2023/09/10 03:29:34;;;;;;;9.57;8.77;;;22.00;99.90;;;;;;5081880;28;20115;-43
2023/09/10 03:32:02;;;;;;;9.07;8.20;;;22.00;99.90;;;;;;5087172;28;20673;-43
2023/09/10 03:34:27;;;;;;;10.25;9.25;;;22.00;99.90;;;;;;5081383;28;20119;-42
2023/09/10 03:36:53;;;;;;;9.63;8.73;;;22.00;99.90;;;;;;5084553;28;20421;-42
2023/09/10 03:39:18;;;;;;;9.70;8.68;;;22.00;99.90;;;;;;5081166;28;20046;-42
2023/09/10 03:41:45;;;;;;;9.55;8.65;;;21.90;99.90;;;;;;5085595;28;20032;-42
2023/09/10 03:44:13;;;;;;;9.27;8.48;;;21.90;99.90;;;;;;5082842;28;20028;-43
2023/09/10 03:46:42;;;;;;;8.70;7.90;;;21.90;99.90;;;;;;5084166;28;20027;-42
2023/09/10 03:49:08;;;;;;;9.50;8.60;;;21.90;99.90;;;;;;5083198;28;20058;-42
2023/09/10 03:51:33;;;;;;;9.43;8.52;;;21.90;99.90;;;;;;5085922;28;20505;-42
2023/09/10 03:53:59;;;;;;;9.05;8.25;;;21.90;99.90;;;;;;5080176;28;20078;-42
2023/09/10 03:56:27;;;;;;;10.02;9.02;;;21.90;99.90;;;;;;5084328;28;20032;-42
2023/09/10 03:58:53;;;;;;;9.50;8.60;;;21.90;99.90;;;;;;5082803;28;20036;-42
2023/09/10 04:01:19;;;;;;;9.45;8.55;;;21.90;99.90;;;;;;5081261;28;20080;-42
2023/09/10 04:03:44;;;;;;;9.95;9.05;;;21.80;99.90;;;;;;5084812;28;20236;-42
2023/09/10 04:06:10;;;;;;;10.00;9.05;;;21.80;99.90;;;;;;5083974;28;20042;-42
2023/09/10 04:08:35;;;;;;;9.98;9.07;;;21.80;99.90;;;;;;5083713;28;20074;-43
2023/09/10 04:11:01;;;;;;;11.80;8.63;;;21.80;99.90;;;;;;5085580;28;20032;-43
2023/09/10 04:13:27;;;;;;;10.98;9.98;;;21.80;99.90;;;;;;5081172;28;20154;-43
2023/09/10 04:15:52;;;;;;;10.02;9.02;;;21.80;99.90;;;;;;5085020;28;20107;-42
2023/09/10 04:18:18;;;;;;;10.63;9.60;;;21.80;99.90;;;;;;5084634;28;20050;-43
2023/09/10 04:20:43;;;;;;;10.02;9.13;;;21.80;99.90;;;;;;5083573;28;20392;-43
2023/09/10 04:23:09;;;;;;;10.77;9.80;;;21.80;99.90;;;;;;5081163;28;20066;-43
2023/09/10 04:25:36;;;;;;;11.32;10.25;;;21.80;99.90;;;;;;5081996;28;20128;-42
2023/09/10 04:28:02;;;;;;;12.15;10.95;;;21.70;99.90;;;;;;5082421;28;20415;-43
2023/09/10 04:30:27;;;;;;;11.88;10.75;;;21.70;99.90;;;;;;5082323;28;20794;-43
2023/09/10 04:32:53;;;;;;;13.00;10.52;;;21.70;99.90;;;;;;5084730;28;20482;-42
2023/09/10 04:35:18;;;;;;;10.38;9.27;;;21.70;99.90;;;;;;5083791;28;20034;-43
2023/09/10 04:37:44;;;;;;;11.55;10.45;;;21.70;99.90;;;;;;5082958;28;20024;-43
2023/09/10 04:40:10;;;;;;;10.63;9.63;;;21.70;99.90;;;;;;5085058;28;20035;-43
2023/09/10 04:42:36;;;;;;;11.05;10.05;;;21.70;99.90;;;;;;5082591;28;20115;-42
2023/09/10 04:45:03;;;;;;;10.57;9.68;;;21.70;99.90;;;;;;5082803;28;20111;-43
2023/09/10 04:47:29;;;;;;;10.90;9.90;;;21.70;99.90;;;;;;5085602;28;20739;-43
2023/09/10 04:49:54;;;;;;;10.82;9.82;;;21.70;99.90;;;;;;5083190;28;20038;-42
2023/09/10 04:52:20;;;;;;;11.43;10.43;;;21.70;99.90;;;;;;5082552;28;20028;-42
2023/09/10 04:54:46;;;;;;;10.70;9.70;;;21.70;99.90;;;;;;5087058;28;20113;-43
2023/09/10 04:57:11;;;;;;;11.63;10.52;;;21.70;99.90;;;;;;5081930;28;20024;-43
2023/09/10 04:59:37;;;;;;;10.43;9.43;;;21.70;99.90;;;;;;5099801;28;20058;-43
2023/09/10 05:02:05;;;;;;;11.05;9.93;;;21.70;99.90;;;;;;5097339;27;20048;-43
2023/09/10 05:04:30;;;;;;;11.05;10.05;;;21.70;99.90;;;;;;5099324;28;20358;-42
2023/09/10 05:06:57;;;;;;;10.48;9.50;;;21.60;99.90;;;;;;5082113;28;20619;-42
2023/09/10 05:09:23;;;;;;;9.95;9.05;;;21.60;99.90;;;;;;5102703;28;20026;-42
2023/09/10 05:11:48;;;;;;;9.98;9.07;;;21.70;99.90;;;;;;5090353;28;20032;-43
2023/09/10 05:14:14;;;;;;;10.15;9.25;;;21.60;99.90;;;;;;5070489;28;20082;-42
2023/09/10 05:16:39;;;;;;;10.23;9.27;;;21.60;99.90;;;;;;5077837;28;20036;-42
2023/09/10 05:19:06;;;;;;;10.30;9.40;;;21.60;99.90;;;;;;5086172;28;20502;-42
2023/09/10 05:21:40;;;;;;;10.20;9.23;;;21.60;99.90;;;;;;5087859;28;20107;-42
2023/09/10 05:24:07;;;;;;;11.02;9.98;;;21.60;99.90;;;;;;5087218;28;20035;-42
2023/09/10 05:26:32;;;;;;;10.15;9.25;;;21.60;99.90;;;;;;5081852;28;20755;-43
2023/09/10 05:28:58;;;;;;;10.55;9.55;;;21.60;99.90;;;;;;5081710;28;20059;-43
2023/09/10 05:31:23;;;;;;;10.80;9.80;;;21.60;99.90;;;;;;5081255;28;20112;-42
2023/09/10 05:33:50;;;;;;;11.05;9.93;;;21.50;99.90;;;;;;5082589;28;20028;-42
2023/09/10 05:36:15;;;;;;;10.65;9.65;;;21.60;99.90;;;;;;5082690;28;22092;-43
2023/09/10 05:38:41;;;;;;;11.40;10.40;;;21.50;99.90;;;;;;5082794;28;20044;-42
2023/09/10 05:41:07;;;;;;;12.95;10.07;;;21.50;99.90;;;;;;5082586;28;20018;-42
2023/09/10 05:43:33;;;;;;;11.20;10.15;;;21.60;99.90;;;;;;5081553;28;20043;-43
2023/09/10 05:45:59;;;;;;;11.60;10.38;;;21.60;99.90;;;;;;5083514;28;20427;-42
2023/09/10 05:48:25;;;;;;;11.30;10.25;;;21.50;99.90;;;;;;5087763;28;20042;-43
2023/09/10 05:51:00;;;;;;;12.23;11.02;;;21.60;99.90;;;;;;5082813;28;20096;-43
2023/09/10 05:53:27;;;;;;;11.82;10.65;;;21.60;99.90;;;;;;5080341;28;20039;-43
2023/09/10 05:55:52;;;;;;;10.52;9.63;;;21.60;99.90;;;;;;5082026;28;20029;-42
2023/09/10 05:58:19;;;;;;;11.35;10.35;;;21.60;99.90;;;;;;5085469;28;20658;-42
2023/09/10 06:00:49;;;;;;;11.68;10.30;;;21.60;99.90;;;;;;5089890;28;20507;-41
2023/09/10 06:03:15;;;;;;;11.15;9.93;;;21.70;99.90;;;;;;5081198;28;20032;-43
2023/09/10 06:05:40;;;;;;;12.15;10.95;;;21.70;99.90;;;;;;5082367;28;20089;-42
2023/09/10 06:08:06;;;;;;;11.35;10.25;;;21.70;99.90;;;;;;5082525;28;20099;-43
2023/09/10 06:10:32;;;;;;;11.07;10.07;;;21.70;99.90;;;;;;5082628;28;20025;-42
2023/09/10 06:12:57;;;;;;;10.25;9.25;;;21.70;99.90;;;;;;5084322;28;20151;-43
2023/09/10 06:15:32;;;;;;;10.98;9.88;;;21.80;99.90;;;;;;5085703;28;20020;-42
2023/09/10 06:17:58;;;;;;;10.18;9.20;;;21.80;99.90;;;;;;5087694;28;20414;-42
2023/09/10 06:20:24;;;;;;;10.65;9.65;;;21.80;99.90;;;;;;5081962;28;20046;-42
2023/09/10 06:22:50;;;;;;;10.00;9.10;;;21.80;99.90;;;;;;5084508;28;20424;-43
2023/09/10 06:25:19;;;;;;;10.55;9.55;;;21.80;99.90;;;;;;5079769;28;20478;-43
2023/09/10 06:27:45;;;;;;;10.18;9.27;;;21.90;99.90;;;;;;5083671;28;20757;-43
2023/09/10 06:30:11;;;;;;;10.57;9.57;;;21.90;99.90;;;;;;5080497;28;20084;-45
2023/09/10 06:32:43;;;;;;;10.48;9.48;;;21.90;99.90;;;;;;5082148;28;20687;-43
2023/09/10 06:35:08;;;;;;;10.15;9.35;;;21.90;99.90;;;;;;5080945;28;20028;-43
2023/09/10 06:37:34;;;;;;;9.88;9.07;;;22.00;99.90;;;;;;5078991;28;20043;-42
2023/09/10 06:39:59;;;;;;;9.60;8.70;;;22.00;99.90;;;;;;5084378;28;20074;-42
2023/09/10 06:42:28;;;;;;;10.35;9.20;;;22.00;99.90;;;;;;5083811;28;21702;-43
2023/09/10 06:44:54;;;;;;;9.63;8.73;;;22.10;99.90;;;;;;5078225;28;20028;-42
2023/09/10 06:47:19;;;;;;;9.50;8.60;;;22.10;99.90;;;;;;5080755;28;20532;-43
2023/09/10 06:49:45;;;;;;;9.40;8.50;;;22.10;99.90;;;;;;5069096;28;20083;-43
2023/09/10 06:52:10;;;;;;;9.95;9.05;;;22.20;99.90;;;;;;5086135;28;20028;-42
2023/09/10 06:54:36;;;;;;;10.20;9.30;;;22.20;99.90;;;;;;5094119;28;20385;-43
2023/09/10 06:57:02;;;;;;;9.90;8.90;;;22.20;99.90;;;;;;5087845;28;20032;-43
2023/09/10 06:59:28;;;;;;;9.75;8.90;;;22.20;99.90;;;;;;5081342;28;20028;-42
2023/09/10 07:01:54;;;;;;;10.18;9.18;;;22.30;99.90;;;;;;5080239;28;20044;-43
2023/09/10 07:04:23;;;;;;;9.80;8.80;;;22.30;99.90;;;;;;5079660;28;20058;-43
2023/09/10 07:06:51;;;;;;;9.40;8.63;;;22.40;99.90;;;;;;5079814;28;20993;-43
2023/09/10 07:09:21;;;;;;;9.75;8.88;;;22.40;99.90;;;;;;5076704;28;20028;-42
2023/09/10 07:11:47;;;;;;;11.15;10.05;;;22.50;99.90;;;;;;5074646;28;20062;-42
2023/09/10 07:14:12;;;;;;;11.15;10.05;;;22.50;99.90;;;;;;5077192;28;20056;-42
2023/09/10 07:16:38;;;;;;;11.05;10.07;;;22.60;99.90;;;;;;5076669;28;20447;-43
2023/09/10 07:19:03;;;;;;;11.13;10.13;;;22.60;99.90;;;;;;5078015;28;20032;-43
2023/09/10 07:21:29;;;;;;;10.18;9.27;;;22.60;99.90;;;;;;5081589;28;20039;-43
2023/09/10 07:23:55;;;;;;;10.95;9.95;;;22.70;99.90;;;;;;5084351;28;20034;-42
2023/09/10 07:26:20;;;;;;;10.48;9.48;;;22.70;99.90;;;;;;5083076;28;20020;-42
2023/09/10 07:28:46;;;;;;;11.23;10.23;;;22.70;99.90;;;;;;5086072;28;20032;-43
2023/09/10 07:31:11;;;;;;;10.88;9.93;;;22.80;99.90;;;;;;5085809;28;20111;-43
2023/09/10 07:33:37;;;;;;;9.30;8.50;;;22.80;99.90;;;;;;5083409;28;20055;-43
2023/09/10 07:36:03;;;;;;;10.13;9.18;;;22.90;99.90;;;;;;5084172;28;20110;-43
2023/09/10 07:38:28;;;;;;;11.25;10.27;;;22.90;99.90;;;;;;5075540;28;20109;-43
2023/09/10 07:40:54;;;;;;;12.02;10.93;;;23.00;99.90;;;;;;5083764;28;20020;-42
2023/09/10 07:43:22;;;;;;;11.82;10.63;;;23.00;99.90;;;;;;5088756;28;20142;-42
2023/09/10 07:45:54;;;;;;;12.05;10.93;;;23.10;99.90;;;;;;5095193;28;20047;-41
2023/09/10 07:48:20;;;;;;;12.20;11.00;;;23.10;99.90;;;;;;5080960;28;20111;-42
2023/09/10 07:50:58;;;;;;;12.07;10.95;;;23.20;99.90;;;;;;5084541;28;20506;-42
2023/09/10 07:53:24;;;;;;;10.75;9.80;;;23.20;99.90;;;;;;5082675;28;20386;-42
2023/09/10 07:55:51;;;;;;;10.52;9.52;;;23.20;99.90;;;;;;5090755;28;20031;-42
2023/09/10 07:58:17;;;;;;;10.35;9.45;;;23.30;99.90;;;;;;5090233;28;20565;-43
2023/09/10 08:00:42;;;;;;;11.35;10.35;;;23.30;99.90;;;;;;5084272;28;20127;-44
2023/09/10 08:03:08;;;;;;;11.18;10.18;;;23.40;99.90;;;;;;5084532;28;20459;-42
2023/09/10 08:05:34;;;;;;;11.13;10.13;;;23.40;99.90;;;;;;5085410;28;20113;-43
2023/09/10 08:08:06;;;;;;;11.00;10.00;;;23.50;99.90;;;;;;5084386;28;20036;-43
2023/09/10 08:10:33;;;;;;;9.95;9.05;;;23.50;99.90;;;;;;5064218;28;20020;-43
2023/09/10 08:13:00;;;;;;;9.60;8.70;;;23.50;99.90;;;;;;5077636;28;20138;-43
2023/09/10 08:15:26;;;;;;;10.32;9.07;;;23.60;99.90;;;;;;5072073;28;20016;-42
2023/09/10 08:17:55;;;;;;;10.40;9.43;;;23.70;99.90;;;;;;5088635;28;20054;-43
2023/09/10 08:20:20;;;;;;;10.82;9.82;;;23.70;99.90;;;;;;5088072;28;20055;-43
2023/09/10 08:22:46;;;;;;;8.52;7.72;;;23.80;99.90;;;;;;5093103;28;20012;-43
2023/09/10 08:25:15;;;;;;;9.93;8.93;;;23.80;99.90;;;;;;5083185;28;20027;-43
2023/09/10 08:27:40;;;;;;;10.45;9.55;;;23.80;99.90;;;;;;5082003;28;20095;-43
2023/09/10 08:30:07;;;;;;;11.40;10.23;;;23.90;99.90;;;;;;5081399;28;20464;-43
2023/09/10 08:32:34;;;;;;;12.82;11.63;;;23.90;99.90;;;;;;5081385;28;20092;-44
2023/09/10 08:35:00;;;;;;;9.60;8.80;;;23.90;99.90;;;;;;5082686;28;20131;-43
2023/09/10 08:37:28;;;;;;;12.32;11.20;;;24.00;99.90;;;;;;5086648;28;20095;-43
2023/09/10 08:39:54;;;;;;;10.90;9.90;;;24.10;99.90;;;;;;5087804;28;20105;-43
2023/09/10 08:42:34;;;;;;;10.68;9.68;;;24.20;99.90;;;;;;5086137;28;20024;-42
2023/09/10 08:45:07;;;;;;;10.32;9.32;;;24.20;99.90;;;;;;5083509;28;20024;-43
2023/09/10 08:47:40;;;;;;;11.57;10.45;;;24.30;99.90;;;;;;5087600;28;20043;-43
2023/09/10 08:50:10;;;;;;;10.70;9.68;;;24.30;99.90;;;;;;5085567;28;20024;-43
2023/09/10 08:52:43;;;;;;;10.77;9.65;;;24.40;99.90;;;;;;5087577;28;20090;-43
2023/09/10 08:55:11;;;;;;;11.43;10.38;;;24.40;99.90;;;;;;5086974;28;20020;-43
2023/09/10 08:57:39;;;;;;;11.48;10.45;;;24.40;99.90;;;;;;5086331;28;20032;-42
2023/09/10 09:00:14;;;;;;;10.27;9.27;;;24.50;99.90;;;;;;5086367;28;20052;-43
2023/09/10 09:02:44;;;;;;;11.63;10.52;;;24.50;99.90;;;;;;5087821;28;20020;-42
2023/09/10 09:05:11;;;;;;;12.98;11.68;;;24.50;99.90;;;;;;5086099;28;20093;-42
2023/09/10 09:07:54;;;;;;;11.55;10.52;;;24.60;99.90;;;;;;5087245;28;20031;-43
2023/09/10 09:10:27;;;;;;;12.23;11.07;;;24.60;99.90;;;;;;5086002;28;20062;-43
2023/09/10 09:12:58;;;;;;;10.68;9.55;;;24.70;99.90;;;;;;5086377;28;20572;-43
2023/09/10 09:15:25;;;;;;;11.02;9.95;;;24.70;99.90;;;;;;5087189;28;20039;-43
2023/09/10 09:17:51;;;;;;;10.32;9.35;;;24.80;99.90;;;;;;5065779;28;20468;-43
2023/09/10 09:20:19;;;;;;;10.02;9.02;;;24.90;99.90;;;;;;5080558;28;20032;-43
2023/09/10 09:22:57;;;;;;;11.57;10.25;;;24.90;99.90;;;;;;5086471;28;20016;-44
2023/09/10 09:25:22;;;;;;;10.82;9.75;;;24.90;99.90;;;;;;5086111;28;20032;-43
2023/09/10 09:27:50;;;;;;;11.80;10.70;;;25.00;99.90;;;;;;5086599;28;20527;-42
2023/09/10 09:30:15;;;;;;;11.88;10.77;;;25.00;99.90;;;;;;5086453;28;20008;-43
2023/09/10 09:32:42;;;;;;;11.77;10.68;;;25.10;99.90;;;;;;5086256;28;20644;-43
2023/09/10 09:35:11;;;;;;;9.65;8.75;;;25.20;99.90;;;;;;5085967;28;20761;-43
2023/09/10 09:37:40;;;;;;;12.45;10.52;;;25.20;99.90;;;;;;5085497;28;20027;-43
2023/09/10 09:40:09;;;;;;;10.85;9.85;;;25.20;99.90;;;;;;5085518;28;20066;-43
2023/09/10 09:42:38;;;;;;;12.15;10.85;;;25.30;99.90;;;;;;5086384;28;20052;-43
2023/09/10 09:45:04;;;;;;;11.85;10.75;;;25.30;99.90;;;;;;5085973;28;20687;-43
2023/09/10 09:47:31;;;;;;;11.63;10.43;;;25.30;99.90;;;;;;5085310;28;20534;-42
2023/09/10 09:49:57;;;;;;;10.75;9.75;;;25.40;99.90;;;;;;5085827;28;20475;-41
2023/09/10 09:52:23;;;;;;;11.65;10.55;;;25.40;99.90;;;;;;5085502;28;20483;-42
2023/09/10 09:54:49;;;;;;;11.32;10.18;;;25.40;99.90;;;;;;5085673;28;20043;-42
2023/09/10 09:57:15;;;;;;;11.63;10.43;;;25.40;99.90;;;;;;5084690;28;20748;-43
2023/09/10 09:59:44;;;;;;;10.50;9.50;;;25.50;99.90;;;;;;5084338;28;20059;-43
2023/09/10 10:02:17;;;;;;;10.25;9.25;;;25.50;99.90;;;;;;5085177;28;20028;-42
2023/09/10 10:04:43;;;;;;;10.77;9.75;;;25.60;99.90;;;;;;5086090;28;20058;-43
2023/09/10 10:07:14;;;;;;;10.68;9.65;;;25.70;99.90;;;;;;5084647;28;20107;-42
2023/09/10 10:09:41;;;;;;;9.88;8.98;;;25.80;99.90;;;;;;5065461;28;20028;-42
2023/09/10 10:12:08;;;;;;;10.32;9.32;;;25.80;99.90;;;;;;5078675;28;20504;-43
2023/09/10 10:14:35;;;;;;;9.55;8.65;;;25.90;99.90;;;;;;5085008;28;20028;-44
2023/09/10 10:17:08;;;;;;;9.80;8.90;;;25.90;99.90;;;;;;5084907;28;20058;-43
2023/09/10 10:19:34;;;;;;;9.82;8.82;;;26.00;99.90;;;;;;5086327;28;20115;-43
2023/09/10 10:22:01;;;;;;;10.52;8.55;;;26.00;99.90;;;;;;5084823;28;20020;-43
2023/09/10 10:24:26;;;;;;;9.90;8.90;;;26.00;99.90;;;;;;5085201;28;20024;-43
2023/09/10 10:26:56;;;;;;;8.25;7.45;;;26.10;99.90;;;;;;5085583;28;20027;-43
2023/09/10 10:29:22;;;;;;;8.88;7.97;;;26.10;99.90;;;;;;5084590;28;20028;-43
2023/09/10 10:32:19;;;;;;;8.27;7.57;;;26.20;99.90;;;;;;5085513;28;20040;-43
2023/09/10 10:34:54;;;;;;;8.05;7.35;;;26.30;99.90;;;;;;5082867;28;20043;-43
2023/09/10 10:37:32;;;;;;;8.55;7.75;;;26.40;99.90;;;;;;5085014;28;20056;-44
2023/09/10 10:40:27;;;;;;;7.97;7.22;;;26.40;99.90;;;;;;5085414;28;20044;-44
2023/09/10 10:43:15;;;;;;;7.90;7.10;;;26.50;99.90;;;;;;5080838;28;20040;-43
2023/09/10 10:45:40;;;;;;;11.30;8.68;;;26.50;99.90;;;;;;5084974;28;20126;-43
2023/09/10 10:48:28;;;;;;;8.50;7.65;;;26.60;99.90;;;;;;5084164;28;20050;-43
2023/09/10 10:50:57;;;;;;;7.53;6.72;;;26.60;99.90;;;;;;5084151;28;20028;-43
2023/09/10 10:53:26;;;;;;;7.22;6.53;;;26.60;99.90;;;;;;5085109;28;20065;-43
2023/09/10 10:55:55;;;;;;;8.15;7.35;;;26.60;99.90;;;;;;5084197;28;20073;-43
2023/09/10 10:58:25;;;;;;;7.90;7.10;;;26.70;99.90;;;;;;5084386;28;20016;-43
2023/09/10 11:00:52;;;;;;;7.68;6.97;;;26.70;99.90;;;;;;5084548;28;20040;-44
2023/09/10 11:03:20;;;;;;;6.97;6.32;;;26.70;99.90;;;;;;5083693;28;20138;-42
2023/09/10 11:05:52;;;;;;;7.22;6.63;;;26.80;99.90;;;;;;5084520;28;20477;-42
2023/09/10 11:08:42;;;;;;;6.70;6.00;;;26.80;99.90;;;;;;5084553;28;20024;-42
2023/09/10 11:11:27;;;;;;;7.60;6.18;;;26.90;99.90;;;;;;5083389;28;20600;-42
2023/09/10 11:14:00;;;;;;;5.95;5.35;;;26.90;99.90;;;;;;5084163;28;20034;-43
2023/09/10 11:16:44;;;;;;;6.45;5.80;;;26.90;99.90;;;;;;5085158;28;20130;-43
2023/09/10 11:19:43;;;;;;;6.57;5.38;;;26.90;99.90;;;;;;5083036;28;20070;-43
2023/09/10 11:22:09;;;;;;;6.78;6.07;;;27.00;99.90;;;;;;5063818;28;20059;-43
2023/09/10 11:24:36;;;;;;;5.45;4.95;;;27.10;99.90;;;;;;5079288;28;20068;-43
2023/09/10 11:27:23;;;;;;;5.93;5.18;;;27.20;99.90;;;;;;5084158;28;20040;-43
2023/09/10 11:30:08;;;;;;;8.23;5.70;;;27.30;99.90;;;;;;5084479;28;20158;-43
2023/09/10 11:32:34;;;;;;;5.78;5.15;;;27.30;99.90;;;;;;5063854;28;20036;-42
2023/09/10 11:35:18;;;;;;;5.88;5.25;;;27.40;99.90;;;;;;5080351;28;20467;-43
2023/09/10 11:37:48;;;;;;;8.63;5.80;;;27.50;99.90;;;;;;5064613;28;20043;-44
2023/09/10 11:40:18;;;;;;;5.40;4.53;;;27.50;99.90;;;;;;5079563;28;20074;-43
2023/09/10 11:42:48;;;;;;;7.07;5.15;;;27.60;99.90;;;;;;5065036;28;20021;-43
2023/09/10 11:45:14;;;;;;;7.25;5.90;;;27.70;99.90;;;;;;5077933;28;20024;-42
2023/09/10 11:47:48;;;;;;;5.05;4.55;;;27.80;99.90;;;;;;5084491;28;20016;-43
2023/09/10 11:50:19;;;;;;;5.28;4.68;;;27.90;99.90;;;;;;5084084;28;20024;-43
2023/09/10 11:52:45;;;;;;;5.60;5.00;;;28.00;99.90;;;;;;5083816;28;20433;-43
2023/09/10 11:55:11;;;;;;;5.43;4.57;;;28.00;99.90;;;;;;5083408;28;20800;-43
2023/09/10 11:57:37;;;;;;;6.50;4.65;;;28.00;99.90;;;;;;5084624;28;20023;-42
2023/09/10 12:00:07;;;;;;;5.10;4.60;;;28.00;99.90;;;;;;5082194;28;20055;-42
2023/09/10 12:02:32;;;;;;;5.57;4.32;;;28.00;99.90;;;;;;5087896;28;20028;-42
2023/09/10 12:04:59;;;;;;;7.03;4.80;;;27.90;99.90;;;;;;5086786;28;20031;-42
2023/09/10 12:07:28;;;;;;;6.57;4.15;;;27.90;99.90;;;;;;5086648;28;20040;-42
2023/09/10 12:09:53;;;;;;;6.53;4.65;;;28.00;99.90;;;;;;5085919;28;20535;-42
2023/09/10 12:12:27;;;;;;;4.50;4.03;;;28.00;99.90;;;;;;5087798;28;20068;-43
2023/09/10 12:14:53;;;;;;;4.57;4.15;;;28.00;99.90;;;;;;5086357;28;20027;-42
2023/09/10 12:17:19;;;;;;;4.93;4.45;;;28.10;99.90;;;;;;5087932;28;20053;-43
2023/09/10 12:19:45;;;;;;;5.20;4.25;;;28.10;99.90;;;;;;5075506;28;20032;-42
2023/09/10 12:22:14;;;;;;;4.40;4.00;;;28.20;99.90;;;;;;5081565;28;20016;-42
2023/09/10 12:24:40;;;;;;;6.60;4.00;;;28.30;99.90;;;;;;5088351;28;20059;-43
2023/09/10 12:27:06;;;;;;;4.28;3.88;;;28.40;99.90;;;;;;5086914;28;20061;-42
2023/09/10 12:29:32;;;;;;;4.65;4.20;;;28.50;99.90;;;;;;5087267;28;20038;-44
2023/09/10 12:31:58;;;;;;;4.30;3.90;;;28.60;99.90;;;;;;5087936;28;20411;-43
2023/09/10 12:34:28;;;;;;;5.30;3.88;;;28.60;99.90;;;;;;5067128;28;20032;-43
2023/09/10 12:36:53;;;;;;;4.72;4.20;;;28.70;99.90;;;;;;5081073;28;20027;-43
2023/09/10 12:39:26;;;;;;;7.97;4.35;;;28.70;99.90;;;;;;5087161;28;20039;-42
2023/09/10 12:42:01;;;;;;;5.65;4.45;;;28.80;99.90;;;;;;5086744;28;20031;-42
2023/09/10 12:44:27;;;;;;;4.68;4.20;;;28.80;99.90;;;;;;5087545;28;20047;-42
2023/09/10 12:46:52;;;;;;;4.28;3.88;;;28.80;99.90;;;;;;5087268;28;20773;-42